Time;durP1;ratioP1;P1;durP2;ratioP2;P2;SDS_P1;SDS_P2;PMS_P1;PMS_P2;Temp;Humidity;BMP_temperature;BMP_pressure;BME280_temperature;BME280_humidity;BME280_pressure;Samples;Min_cycle;Max_cycle;Signal;HPM_P1;HPM_P2
2023/09/08 00:00:17;;;;;;;6.60;5.20;;;;;;;;;;107737;297;40671;-38
2023/09/08 00:03:10;;;;;;;6.30;5.10;;;;;;;;;;107717;297;45746;-37
2023/09/08 00:05:44;;;;;;;6.30;5.20;;;;;;;;;;107074;297;912881;-37
2023/09/08 00:08:18;;;;;;;6.70;5.00;;;;;;;;;;107757;297;38534;-37
2023/09/08 00:10:51;;;;;;;6.40;5.10;;;;;;;;;;107744;297;39387;-37
2023/09/08 00:13:27;;;;;;;9.80;7.30;;;;;;;;;;107713;301;42608;-38
2023/09/08 00:16:00;;;;;;;6.90;5.20;;;;;;;;;;107688;297;42076;-37
2023/09/08 00:18:36;;;;;;;6.50;5.00;;;;;;;;;;107735;297;38526;-37
2023/09/08 00:21:09;;;;;;;6.20;4.70;;;;;;;;;;107726;297;39538;-38
2023/09/08 00:23:43;;;;;;;7.30;5.20;;;;;;;;;;107659;297;42988;-38
2023/09/08 00:26:19;;;;;;;6.30;5.40;;;;;;;;;;107690;297;41952;-38
2023/09/08 00:28:52;;;;;;;8.20;5.40;;;;;;;;;;107723;297;38518;-37
2023/09/08 00:31:26;;;;;;;6.60;5.30;;;;;;;;;;107704;297;40660;-38
2023/09/08 00:34:00;;;;;;;6.60;5.30;;;;;;;;;;107748;297;44027;-38
2023/09/08 00:36:33;;;;;;;7.30;5.40;;;;;;;;;;107708;297;41892;-37
2023/09/08 00:39:07;;;;;;;7.60;5.30;;;;;;;;;;107725;297;39634;-38
2023/09/08 00:41:41;;;;;;;6.50;5.10;;;;;;;;;;107725;297;39657;-37
2023/09/08 00:44:15;;;;;;;6.90;5.10;;;;;;;;;;107752;297;43862;-38
2023/09/08 00:46:48;;;;;;;6.20;4.80;;;;;;;;;;107673;297;41825;-38
2023/09/08 00:49:24;;;;;;;6.10;5.10;;;;;;;;;;107743;297;38477;-38
2023/09/08 00:51:58;;;;;;;7.20;5.30;;;;;;;;;;107755;297;39420;-38
2023/09/08 00:54:34;;;;;;;6.10;5.10;;;;;;;;;;107708;297;42491;-37
2023/09/08 00:57:12;;;;;;;6.90;5.20;;;;;;;;;;107725;297;41710;-37
2023/09/08 00:59:45;;;;;;;7.10;5.30;;;;;;;;;;107787;297;38529;-38
2023/09/08 01:02:18;;;;;;;7.00;5.30;;;;;;;;;;107741;297;39535;-38
2023/09/08 01:04:52;;;;;;;7.00;5.20;;;;;;;;;;107723;297;44084;-38
2023/09/08 01:07:27;;;;;;;6.90;5.20;;;;;;;;;;107692;297;41998;-38
2023/09/08 01:10:04;;;;;;;6.90;5.00;;;;;;;;;;107747;297;38641;-38
2023/09/08 01:12:42;;;;;;;7.40;5.40;;;;;;;;;;107749;297;40775;-38
2023/09/08 01:15:16;;;;;;;6.40;4.90;;;;;;;;;;107732;297;42584;-37
2023/09/08 01:17:53;;;;;;;7.90;5.20;;;;;;;;;;107693;297;41805;-37
2023/09/08 01:20:31;;;;;;;7.70;5.10;;;;;;;;;;107714;297;38541;-37
2023/09/08 01:23:23;;;;;;;6.30;5.20;;;;;;;;;;107718;297;39343;-38
2023/09/08 01:26:02;;;;;;;6.30;4.90;;;;;;;;;;107764;297;43918;-37
2023/09/08 01:28:36;;;;;;;7.10;5.30;;;;;;;;;;107700;297;47659;-38
2023/09/08 01:31:11;;;;;;;6.60;5.40;;;;;;;;;;107749;297;38433;-38
2023/09/08 01:33:45;;;;;;;6.20;5.10;;;;;;;;;;107739;297;39399;-38
2023/09/08 01:36:23;;;;;;;6.10;5.00;;;;;;;;;;107740;297;42591;-38
2023/09/08 01:38:58;;;;;;;6.60;5.30;;;;;;;;;;107708;297;49104;-38
2023/09/08 01:41:33;;;;;;;6.30;5.10;;;;;;;;;;107747;297;39837;-38
2023/09/08 01:44:10;;;;;;;7.90;5.30;;;;;;;;;;107756;297;40401;-38
2023/09/08 01:46:44;;;;;;;6.60;5.20;;;;;;;;;;107723;297;42721;-38
2023/09/08 01:49:17;;;;;;;6.40;5.20;;;;;;;;;;107735;297;42280;-38
2023/09/08 01:51:51;;;;;;;7.10;5.30;;;;;;;;;;107741;297;38488;-37
2023/09/08 01:54:24;;;;;;;6.80;5.30;;;;;;;;;;107770;297;40650;-38
2023/09/08 01:56:58;;;;;;;6.90;5.60;;;;;;;;;;107697;297;42991;-38
2023/09/08 01:59:33;;;;;;;6.00;5.20;;;;;;;;;;107688;297;41794;-39
2023/09/08 02:02:09;;;;;;;6.90;5.60;;;;;;;;;;107735;297;39923;-37
2023/09/08 02:04:44;;;;;;;7.30;5.40;;;;;;;;;;107725;297;39328;-38
2023/09/08 02:07:20;;;;;;;6.50;5.50;;;;;;;;;;107708;297;42542;-37
2023/09/08 02:09:57;;;;;;;7.70;5.20;;;;;;;;;;107608;297;175501;-37
2023/09/08 02:12:31;;;;;;;7.70;5.60;;;;;;;;;;107724;297;38482;-38
2023/09/08 02:15:05;;;;;;;6.30;5.50;;;;;;;;;;107716;297;40230;-38
2023/09/08 02:17:40;;;;;;;7.00;5.30;;;;;;;;;;107606;297;175501;-38
2023/09/08 02:20:20;;;;;;;6.70;5.30;;;;;;;;;;107741;297;47497;-37
2023/09/08 02:23:06;;;;;;;6.00;4.30;;;;;;;;;;107707;297;38682;-38
2023/09/08 02:25:40;;;;;;;6.70;5.60;;;;;;;;;;107618;297;175528;-38
2023/09/08 02:28:15;;;;;;;7.20;5.50;;;;;;;;;;107690;297;42604;-37
2023/09/08 02:30:53;;;;;;;7.30;5.30;;;;;;;;;;107727;297;41791;-38
2023/09/08 02:33:39;;;;;;;6.70;5.60;;;;;;;;;;107719;297;38455;-38
2023/09/08 02:36:15;;;;;;;7.40;5.10;;;;;;;;;;107735;297;39382;-37
2023/09/08 02:38:48;;;;;;;7.20;5.80;;;;;;;;;;107712;297;42548;-37
2023/09/08 02:41:22;;;;;;;6.60;5.60;;;;;;;;;;107726;297;43251;-38
2023/09/08 02:43:57;;;;;;;6.30;5.30;;;;;;;;;;107743;297;38635;-37
2023/09/08 02:46:30;;;;;;;6.80;5.40;;;;;;;;;;107739;297;39579;-38
2023/09/08 02:49:07;;;;;;;6.40;5.40;;;;;;;;;;107709;297;42571;-39
2023/09/08 02:51:42;;;;;;;7.50;5.60;;;;;;;;;;107732;297;41929;-37
2023/09/08 02:54:15;;;;;;;6.10;5.20;;;;;;;;;;107713;297;39021;-38
2023/09/08 02:56:48;;;;;;;6.80;5.10;;;;;;;;;;107759;297;39524;-37
2023/09/08 02:59:24;;;;;;;6.90;5.60;;;;;;;;;;107688;297;42687;-38
2023/09/08 03:01:58;;;;;;;6.90;5.40;;;;;;;;;;107731;297;41872;-38
2023/09/08 03:04:35;;;;;;;6.50;5.30;;;;;;;;;;107734;297;38663;-38
2023/09/08 03:07:10;;;;;;;7.30;5.70;;;;;;;;;;107770;297;39520;-38
2023/09/08 03:09:44;;;;;;;7.30;5.40;;;;;;;;;;107687;297;42796;-37
2023/09/08 03:12:18;;;;;;;6.70;5.50;;;;;;;;;;107731;297;43162;-38
2023/09/08 03:14:51;;;;;;;7.70;5.40;;;;;;;;;;107742;297;39457;-38
2023/09/08 03:17:25;;;;;;;6.60;5.50;;;;;;;;;;107749;297;39335;-38
2023/09/08 03:20:00;;;;;;;7.40;5.60;;;;;;;;;;107699;297;42535;-37
2023/09/08 03:22:33;;;;;;;7.40;5.70;;;;;;;;;;107744;297;41824;-37
2023/09/08 03:25:09;;;;;;;7.00;5.50;;;;;;;;;;107719;297;38498;-37
2023/09/08 03:27:42;;;;;;;7.50;5.70;;;;;;;;;;107762;296;39611;-38
2023/09/08 03:30:19;;;;;;;7.70;5.70;;;;;;;;;;107571;297;176706;-38
2023/09/08 03:32:54;;;;;;;7.70;5.40;;;;;;;;;;107726;297;42333;-38
2023/09/08 03:35:28;;;;;;;7.80;5.90;;;;;;;;;;107717;297;39825;-38
2023/09/08 03:38:06;;;;;;;7.40;5.50;;;;;;;;;;107747;297;39545;-38
2023/09/08 03:40:39;;;;;;;7.90;5.50;;;;;;;;;;107692;297;43863;-38
2023/09/08 03:43:14;;;;;;;7.90;5.80;;;;;;;;;;107742;297;41969;-37
2023/09/08 03:45:51;;;;;;;8.20;5.90;;;;;;;;;;107722;297;38671;-38
2023/09/08 03:48:24;;;;;;;7.70;5.70;;;;;;;;;;107738;297;39412;-37
2023/09/08 03:51:00;;;;;;;7.40;5.90;;;;;;;;;;107705;297;43950;-37
2023/09/08 03:53:33;;;;;;;7.20;6.10;;;;;;;;;;107746;297;43255;-38
2023/09/08 03:56:14;;;;;;;7.30;5.80;;;;;;;;;;107774;297;38567;-38
2023/09/08 03:58:48;;;;;;;7.20;5.70;;;;;;;;;;107656;297;175521;-39
2023/09/08 04:01:25;;;;;;;7.50;5.70;;;;;;;;;;107698;297;42541;-37
2023/09/08 04:03:58;;;;;;;8.60;6.10;;;;;;;;;;107711;297;41937;-37
2023/09/08 04:06:32;;;;;;;7.20;5.60;;;;;;;;;;107702;297;38677;-37
2023/09/08 04:09:08;;;;;;;6.80;5.70;;;;;;;;;;107733;297;39325;-38
2023/09/08 04:11:46;;;;;;;6.50;5.70;;;;;;;;;;107653;297;42955;-37
2023/09/08 04:14:20;;;;;;;7.00;6.00;;;;;;;;;;107701;297;41790;-38
2023/09/08 04:16:54;;;;;;;7.20;5.70;;;;;;;;;;107721;297;39844;-38
2023/09/08 04:19:31;;;;;;;7.80;6.00;;;;;;;;;;107741;297;39317;-38
2023/09/08 04:22:09;;;;;;;6.80;5.80;;;;;;;;;;107583;296;175530;-39
2023/09/08 04:24:46;;;;;;;7.50;6.20;;;;;;;;;;107113;297;892185;-38
2023/09/08 04:27:21;;;;;;;7.50;5.80;;;;;;;;;;107726;297;38551;-38
2023/09/08 04:30:00;;;;;;;7.60;5.70;;;;;;;;;;107738;297;40729;-38
2023/09/08 04:32:37;;;;;;;8.30;5.90;;;;;;;;;;107841;297;42949;-39
2023/09/08 04:35:17;;;;;;;8.00;5.80;;;;;;;;;;107741;297;43128;-38
2023/09/08 04:37:51;;;;;;;7.10;5.90;;;;;;;;;;107734;297;38632;-39
2023/09/08 04:40:26;;;;;;;7.20;6.00;;;;;;;;;;107708;297;39761;-38
2023/09/08 04:43:00;;;;;;;7.10;5.90;;;;;;;;;;107706;297;48768;-38
2023/09/08 04:45:34;;;;;;;8.20;6.30;;;;;;;;;;107750;297;42051;-38
2023/09/08 04:48:11;;;;;;;7.50;6.30;;;;;;;;;;107750;297;38497;-38
2023/09/08 04:50:44;;;;;;;8.10;6.60;;;;;;;;;;107714;297;39580;-38
2023/09/08 04:53:22;;;;;;;8.90;6.20;;;;;;;;;;107668;296;49730;-39
2023/09/08 04:55:56;;;;;;;8.00;5.90;;;;;;;;;;107745;297;42232;-38
2023/09/08 04:58:29;;;;;;;8.00;5.90;;;;;;;;;;107737;297;38504;-38
2023/09/08 05:01:03;;;;;;;7.60;6.00;;;;;;;;;;107689;297;39527;-38
2023/09/08 05:03:36;;;;;;;7.50;5.80;;;;;;;;;;107679;297;50124;-38
2023/09/08 05:06:13;;;;;;;7.40;6.00;;;;;;;;;;107744;297;41984;-39
2023/09/08 05:08:47;;;;;;;8.10;6.00;;;;;;;;;;107496;297;324394;-39
2023/09/08 05:11:20;;;;;;;6.90;5.90;;;;;;;;;;107733;297;39349;-38
2023/09/08 05:13:57;;;;;;;8.10;5.80;;;;;;;;;;107670;296;49856;-39
2023/09/08 05:16:39;;;;;;;8.10;6.20;;;;;;;;;;107757;297;41742;-38
2023/09/08 05:19:13;;;;;;;7.80;6.00;;;;;;;;;;107751;297;38549;-39
2023/09/08 05:21:55;;;;;;;7.90;6.00;;;;;;;;;;107705;297;39880;-38
2023/09/08 05:24:29;;;;;;;8.00;6.40;;;;;;;;;;107715;297;48864;-38
2023/09/08 05:27:03;;;;;;;8.30;6.30;;;;;;;;;;107750;301;41803;-39
2023/09/08 05:29:37;;;;;;;7.60;6.20;;;;;;;;;;107703;297;38522;-38
2023/09/08 05:32:15;;;;;;;7.40;6.30;;;;;;;;;;107714;297;39341;-38
2023/09/08 05:35:01;;;;;;;7.60;6.00;;;;;;;;;;107716;297;49280;-38
2023/09/08 05:37:34;;;;;;;8.80;6.10;;;;;;;;;;107738;297;43296;-38
2023/09/08 05:40:16;;;;;;;8.40;6.00;;;;;;;;;;107750;297;38489;-38
2023/09/08 05:42:54;;;;;;;8.30;6.40;;;;;;;;;;107679;297;39579;-38
2023/09/08 05:45:29;;;;;;;8.20;6.30;;;;;;;;;;107784;297;42529;-38
2023/09/08 05:48:02;;;;;;;9.00;6.30;;;;;;;;;;107733;297;42429;-38
2023/09/08 05:50:36;;;;;;;9.30;6.70;;;;;;;;;;107728;297;38534;-38
2023/09/08 05:53:12;;;;;;;8.50;6.50;;;;;;;;;;107701;297;39383;-38
2023/09/08 05:55:46;;;;;;;8.50;6.50;;;;;;;;;;107705;297;42553;-38
2023/09/08 05:58:20;;;;;;;8.30;6.20;;;;;;;;;;107723;297;41916;-38
2023/09/08 06:00:53;;;;;;;9.30;6.20;;;;;;;;;;107758;297;38679;-38
2023/09/08 06:03:31;;;;;;;8.20;6.60;;;;;;;;;;107718;296;39619;-38
2023/09/08 06:06:05;;;;;;;8.10;6.40;;;;;;;;;;107724;297;43004;-38
2023/09/08 06:08:38;;;;;;;8.70;6.90;;;;;;;;;;107724;297;43196;-38
2023/09/08 06:11:16;;;;;;;8.20;6.50;;;;;;;;;;107744;297;38512;-38
2023/09/08 06:13:49;;;;;;;9.20;6.90;;;;;;;;;;107743;297;40651;-38
2023/09/08 06:16:27;;;;;;;9.10;6.80;;;;;;;;;;107753;297;42750;-38
2023/09/08 06:19:03;;;;;;;9.30;6.70;;;;;;;;;;107735;297;43144;-38
2023/09/08 06:21:42;;;;;;;8.30;6.70;;;;;;;;;;107731;297;38837;-38
2023/09/08 06:24:16;;;;;;;8.00;6.70;;;;;;;;;;107664;297;40829;-38
2023/09/08 06:26:50;;;;;;;8.30;6.70;;;;;;;;;;107736;297;42530;-38
2023/09/08 06:29:26;;;;;;;8.50;6.90;;;;;;;;;;107715;297;42000;-38
2023/09/08 06:31:59;;;;;;;8.50;7.20;;;;;;;;;;107625;297;175504;-38
2023/09/08 06:34:38;;;;;;;8.30;7.10;;;;;;;;;;107713;297;39367;-38
2023/09/08 06:37:12;;;;;;;8.40;6.90;;;;;;;;;;107723;297;43026;-38
2023/09/08 06:39:46;;;;;;;9.10;7.50;;;;;;;;;;107717;297;41833;-38
2023/09/08 06:42:19;;;;;;;8.50;7.50;;;;;;;;;;107738;297;38646;-38
2023/09/08 06:44:53;;;;;;;10.30;7.60;;;;;;;;;;107712;297;39590;-38
2023/09/08 06:47:26;;;;;;;10.10;7.70;;;;;;;;;;107709;297;43867;-38
2023/09/08 06:50:01;;;;;;;9.20;7.60;;;;;;;;;;107614;297;175540;-38
2023/09/08 06:52:34;;;;;;;8.60;7.00;;;;;;;;;;107701;297;38712;-38
2023/09/08 06:55:11;;;;;;;9.10;7.40;;;;;;;;;;107720;297;39578;-38
2023/09/08 06:57:46;;;;;;;9.00;7.50;;;;;;;;;;107645;290;42625;-40
2023/09/08 07:00:21;;;;;;;10.20;7.70;;;;;;;;;;107594;295;43802;-39
2023/09/08 07:02:55;;;;;;;9.10;7.50;;;;;;;;;;107704;290;38783;-40
2023/09/08 07:05:30;;;;;;;9.10;7.20;;;;;;;;;;107658;290;39701;-40
2023/09/08 07:08:07;;;;;;;8.50;7.20;;;;;;;;;;107713;294;43041;-40
2023/09/08 07:10:43;;;;;;;8.90;7.40;;;;;;;;;;107713;298;42020;-39
2023/09/08 07:13:19;;;;;;;8.70;7.70;;;;;;;;;;107684;290;38705;-40
2023/09/08 07:15:52;;;;;;;10.40;8.00;;;;;;;;;;107671;290;39646;-40
2023/09/08 07:18:25;;;;;;;10.10;8.20;;;;;;;;;;107718;297;42808;-40
2023/09/08 07:21:00;;;;;;;8.50;7.30;;;;;;;;;;107700;294;42105;-40
2023/09/08 07:23:36;;;;;;;9.60;7.70;;;;;;;;;;107704;297;38496;-41
2023/09/08 07:26:10;;;;;;;8.40;7.00;;;;;;;;;;107690;290;41252;-41
2023/09/08 07:28:43;;;;;;;8.70;7.10;;;;;;;;;;107736;289;43192;-41
2023/09/08 07:31:19;;;;;;;8.70;7.30;;;;;;;;;;107687;290;42060;-42
2023/09/08 07:33:53;;;;;;;8.80;7.20;;;;;;;;;;107693;290;38903;-41
2023/09/08 07:36:27;;;;;;;8.70;7.10;;;;;;;;;;107639;293;39655;-38
2023/09/08 07:39:01;;;;;;;9.30;7.30;;;;;;;;;;107705;297;42882;-37
2023/09/08 07:41:34;;;;;;;8.60;7.30;;;;;;;;;;107700;289;42460;-39
2023/09/08 07:44:08;;;;;;;8.20;6.70;;;;;;;;;;107678;297;38518;-40
2023/09/08 07:46:46;;;;;;;9.10;6.90;;;;;;;;;;107708;290;39656;-39
2023/09/08 07:49:20;;;;;;;8.50;6.50;;;;;;;;;;107696;290;42955;-39
2023/09/08 07:51:58;;;;;;;8.50;7.30;;;;;;;;;;107701;289;43321;-38
2023/09/08 07:54:32;;;;;;;8.80;7.50;;;;;;;;;;107706;295;39946;-39
2023/09/08 07:57:12;;;;;;;10.30;7.20;;;;;;;;;;107656;293;41024;-38
2023/09/08 07:59:45;;;;;;;9.70;7.10;;;;;;;;;;107673;293;42999;-39
2023/09/08 08:02:19;;;;;;;8.10;7.00;;;;;;;;;;107720;293;42310;-39
2023/09/08 08:04:59;;;;;;;10.60;7.10;;;;;;;;;;107719;293;38685;-38
2023/09/08 08:07:35;;;;;;;8.70;6.80;;;;;;;;;;107667;290;39757;-38
2023/09/08 08:10:14;;;;;;;8.40;7.20;;;;;;;;;;107696;293;42940;-38
2023/09/08 08:12:48;;;;;;;8.30;6.70;;;;;;;;;;107653;290;42308;-40
2023/09/08 08:15:23;;;;;;;7.70;6.40;;;;;;;;;;107730;297;38822;-38
2023/09/08 08:17:56;;;;;;;9.90;7.20;;;;;;;;;;107679;290;46683;-39
2023/09/08 08:20:34;;;;;;;8.30;6.70;;;;;;;;;;107655;295;43132;-40
2023/09/08 08:23:09;;;;;;;8.20;6.70;;;;;;;;;;107641;295;42109;-39
2023/09/08 08:25:44;;;;;;;8.40;7.20;;;;;;;;;;107603;289;175482;-38
2023/09/08 08:28:17;;;;;;;8.80;7.20;;;;;;;;;;107815;297;45350;-40
2023/09/08 08:30:52;;;;;;;10.00;7.50;;;;;;;;;;107677;297;42866;-38
2023/09/08 08:33:26;;;;;;;8.50;7.00;;;;;;;;;;107747;290;42183;-38
2023/09/08 08:36:00;;;;;;;9.10;6.90;;;;;;;;;;107030;297;893252;-40
2023/09/08 08:38:35;;;;;;;8.70;7.30;;;;;;;;;;107658;297;46276;-38
2023/09/08 08:41:12;;;;;;;8.80;7.00;;;;;;;;;;107707;293;43822;-37
2023/09/08 08:43:50;;;;;;;8.40;6.90;;;;;;;;;;107695;290;41803;-39
2023/09/08 08:46:27;;;;;;;7.90;6.90;;;;;;;;;;107648;295;38737;-38
2023/09/08 08:49:05;;;;;;;9.30;7.10;;;;;;;;;;107719;290;45797;-39
2023/09/08 08:51:40;;;;;;;8.20;6.90;;;;;;;;;;107686;297;44135;-39
2023/09/08 08:54:17;;;;;;;8.60;7.00;;;;;;;;;;107720;290;42375;-39
2023/09/08 08:56:54;;;;;;;8.00;6.70;;;;;;;;;;107624;290;38672;-38
2023/09/08 08:59:32;;;;;;;9.10;7.10;;;;;;;;;;107696;297;39723;-38
2023/09/08 09:02:08;;;;;;;8.10;6.90;;;;;;;;;;107720;290;43883;-39
2023/09/08 09:04:44;;;;;;;9.40;7.00;;;;;;;;;;107701;297;42221;-39
2023/09/08 09:07:22;;;;;;;8.40;6.60;;;;;;;;;;107647;290;38761;-38
2023/09/08 09:09:57;;;;;;;9.50;7.00;;;;;;;;;;107726;297;39645;-39
2023/09/08 09:12:31;;;;;;;8.20;6.80;;;;;;;;;;107606;293;175518;-39
2023/09/08 09:15:06;;;;;;;7.80;6.90;;;;;;;;;;107712;293;42008;-38
2023/09/08 09:17:40;;;;;;;7.50;6.40;;;;;;;;;;107687;297;39826;-38
2023/09/08 09:20:21;;;;;;;8.20;6.50;;;;;;;;;;107746;297;39602;-39
2023/09/08 09:22:59;;;;;;;8.00;6.70;;;;;;;;;;107693;301;42557;-39
2023/09/08 09:25:35;;;;;;;7.40;6.50;;;;;;;;;;107716;293;42079;-39
2023/09/08 09:28:10;;;;;;;8.30;6.70;;;;;;;;;;107680;290;38722;-38
2023/09/08 09:30:55;;;;;;;7.60;6.40;;;;;;;;;;107690;290;40889;-38
2023/09/08 09:33:30;;;;;;;7.90;6.80;;;;;;;;;;107691;290;42840;-39
2023/09/08 09:36:05;;;;;;;7.90;6.20;;;;;;;;;;107713;290;42214;-39
2023/09/08 09:38:43;;;;;;;8.90;6.60;;;;;;;;;;107649;297;38501;-39
2023/09/08 09:41:16;;;;;;;7.50;6.40;;;;;;;;;;107706;290;40839;-39
2023/09/08 09:43:50;;;;;;;7.50;6.20;;;;;;;;;;107698;297;43182;-38
2023/09/08 09:46:24;;;;;;;8.60;6.30;;;;;;;;;;107696;293;42197;-41
2023/09/08 09:49:01;;;;;;;7.00;6.10;;;;;;;;;;107644;289;38499;-38
2023/09/08 09:51:43;;;;;;;8.40;6.50;;;;;;;;;;107728;293;39635;-38
2023/09/08 09:54:16;;;;;;;7.20;6.20;;;;;;;;;;107702;290;42873;-39
2023/09/08 09:56:51;;;;;;;8.70;6.70;;;;;;;;;;107722;290;42214;-39
2023/09/08 09:59:28;;;;;;;6.90;6.10;;;;;;;;;;107645;297;39394;-39
2023/09/08 10:02:04;;;;;;;8.40;6.70;;;;;;;;;;107705;293;40009;-40
2023/09/08 10:04:39;;;;;;;7.50;6.40;;;;;;;;;;107724;290;42978;-40
2023/09/08 10:07:17;;;;;;;7.70;6.10;;;;;;;;;;107582;289;175414;-42
2023/09/08 10:09:53;;;;;;;6.90;6.20;;;;;;;;;;107675;290;38535;-41
2023/09/08 10:12:31;;;;;;;7.50;6.10;;;;;;;;;;107704;297;39617;-40
2023/09/08 10:15:09;;;;;;;7.10;6.10;;;;;;;;;;107693;290;43158;-39
2023/09/08 10:17:54;;;;;;;9.10;6.10;;;;;;;;;;107701;297;41772;-38
2023/09/08 10:20:31;;;;;;;7.20;6.40;;;;;;;;;;107652;297;38729;-37
2023/09/08 10:23:20;;;;;;;7.40;6.30;;;;;;;;;;107578;289;176269;-38
2023/09/08 10:26:04;;;;;;;8.20;6.60;;;;;;;;;;107695;290;42559;-38
2023/09/08 10:28:40;;;;;;;7.50;6.30;;;;;;;;;;107678;289;42891;-38
2023/09/08 10:31:16;;;;;;;7.10;6.30;;;;;;;;;;107653;294;38881;-38
2023/09/08 10:33:54;;;;;;;7.20;6.50;;;;;;;;;;107724;298;40898;-38
2023/09/08 10:36:30;;;;;;;7.30;6.10;;;;;;;;;;107701;297;42847;-38
2023/09/08 10:39:39;;;;;;;6.60;5.90;;;;;;;;;;107657;297;42212;-38
2023/09/08 10:42:31;;;;;;;7.00;6.00;;;;;;;;;;107704;297;39891;-38
2023/09/08 10:45:20;;;;;;;7.60;6.00;;;;;;;;;;107687;289;39694;-38
2023/09/08 10:48:01;;;;;;;6.70;5.80;;;;;;;;;;107711;290;43152;-38
2023/09/08 10:50:42;;;;;;;7.50;6.70;;;;;;;;;;107646;294;43322;-38
2023/09/08 10:53:21;;;;;;;6.90;6.20;;;;;;;;;;107701;290;38736;-38
2023/09/08 10:56:01;;;;;;;8.50;6.20;;;;;;;;;;107686;289;40895;-38
2023/09/08 10:59:02;;;;;;;7.00;6.10;;;;;;;;;;107698;290;42872;-38
2023/09/08 11:01:38;;;;;;;7.60;6.70;;;;;;;;;;107842;297;47667;-38
2023/09/08 11:04:18;;;;;;;7.00;6.30;;;;;;;;;;107723;297;38549;-39
2023/09/08 11:06:55;;;;;;;7.50;6.70;;;;;;;;;;107679;297;39353;-38
2023/09/08 11:09:31;;;;;;;7.70;6.90;;;;;;;;;;107696;290;44045;-38
2023/09/08 11:12:11;;;;;;;7.90;6.80;;;;;;;;;;107722;293;48111;-38
2023/09/08 11:14:45;;;;;;;6.70;6.00;;;;;;;;;;107072;290;890564;-39
2023/09/08 11:17:20;;;;;;;7.50;6.10;;;;;;;;;;107690;290;39777;-38
2023/09/08 11:19:55;;;;;;;7.10;6.40;;;;;;;;;;107656;293;43136;-39
2023/09/08 11:22:30;;;;;;;6.90;5.90;;;;;;;;;;107718;290;50439;-40
2023/09/08 11:25:04;;;;;;;7.00;6.30;;;;;;;;;;107694;289;38535;-39
2023/09/08 11:27:40;;;;;;;6.80;6.10;;;;;;;;;;107703;297;39748;-38
2023/09/08 11:30:23;;;;;;;6.70;6.00;;;;;;;;;;107712;293;43856;-38
2023/09/08 11:32:58;;;;;;;7.10;6.40;;;;;;;;;;107676;297;49522;-38
2023/09/08 11:35:42;;;;;;;7.50;6.80;;;;;;;;;;107735;297;38741;-39
2023/09/08 11:38:23;;;;;;;7.00;6.20;;;;;;;;;;107721;290;41871;-39
2023/09/08 11:40:59;;;;;;;6.90;6.20;;;;;;;;;;107684;297;42859;-38
2023/09/08 11:43:32;;;;;;;7.20;6.50;;;;;;;;;;107697;289;42218;-39
2023/09/08 11:46:10;;;;;;;6.90;6.20;;;;;;;;;;107702;290;38791;-38
2023/09/08 11:48:48;;;;;;;7.30;6.60;;;;;;;;;;107632;293;39832;-38
2023/09/08 11:51:28;;;;;;;7.00;6.30;;;;;;;;;;107683;297;42783;-38
2023/09/08 11:54:03;;;;;;;7.10;6.30;;;;;;;;;;107668;293;43140;-38
2023/09/08 11:56:36;;;;;;;7.40;6.20;;;;;;;;;;107715;290;38806;-38
2023/09/08 11:59:13;;;;;;;6.90;6.00;;;;;;;;;;107715;298;39802;-38
2023/09/08 12:01:46;;;;;;;6.70;6.00;;;;;;;;;;107580;294;175431;-38
2023/09/08 12:04:23;;;;;;;6.50;5.80;;;;;;;;;;107713;290;43191;-38
2023/09/08 12:06:59;;;;;;;6.30;5.70;;;;;;;;;;107701;289;38740;-38
2023/09/08 12:09:35;;;;;;;6.30;5.70;;;;;;;;;;107697;290;39505;-38
2023/09/08 12:12:15;;;;;;;6.60;5.90;;;;;;;;;;107650;290;42566;-38
2023/09/08 12:14:50;;;;;;;6.40;5.60;;;;;;;;;;107678;290;43134;-38
2023/09/08 12:17:26;;;;;;;6.60;6.00;;;;;;;;;;107735;297;38735;-38
2023/09/08 12:19:59;;;;;;;7.10;5.60;;;;;;;;;;107687;297;39627;-37
2023/09/08 12:22:36;;;;;;;7.00;6.20;;;;;;;;;;107656;293;43127;-37
2023/09/08 12:25:11;;;;;;;6.40;5.80;;;;;;;;;;107700;297;42160;-38
2023/09/08 12:27:50;;;;;;;6.00;5.40;;;;;;;;;;107720;297;38739;-38
2023/09/08 12:30:29;;;;;;;6.60;5.90;;;;;;;;;;107704;289;39644;-37
2023/09/08 12:33:05;;;;;;;7.20;6.40;;;;;;;;;;107656;290;42578;-38
2023/09/08 12:35:39;;;;;;;6.50;5.80;;;;;;;;;;107772;297;43294;-37
2023/09/08 12:38:12;;;;;;;6.10;5.50;;;;;;;;;;107131;293;890705;-38
2023/09/08 12:40:46;;;;;;;6.10;5.20;;;;;;;;;;107731;290;40817;-38
2023/09/08 12:43:23;;;;;;;6.20;5.50;;;;;;;;;;107712;293;42817;-38
2023/09/08 12:46:03;;;;;;;6.00;5.40;;;;;;;;;;107741;293;42062;-38
2023/09/08 12:48:36;;;;;;;6.50;5.80;;;;;;;;;;107691;290;38840;-38
2023/09/08 12:51:15;;;;;;;6.60;5.80;;;;;;;;;;107720;294;39678;-38
2023/09/08 12:53:48;;;;;;;7.20;5.80;;;;;;;;;;107585;297;175425;-38
2023/09/08 12:56:24;;;;;;;6.50;5.70;;;;;;;;;;107776;297;43366;-38
2023/09/08 12:59:02;;;;;;;6.10;5.50;;;;;;;;;;107700;295;39970;-38
2023/09/08 13:01:36;;;;;;;6.40;5.30;;;;;;;;;;107701;297;39878;-38
2023/09/08 13:04:11;;;;;;;6.80;5.80;;;;;;;;;;107718;289;42938;-38
2023/09/08 13:06:47;;;;;;;6.60;5.50;;;;;;;;;;107692;290;42047;-37
2023/09/08 13:09:21;;;;;;;5.90;5.30;;;;;;;;;;107448;289;327938;-38
2023/09/08 13:11:58;;;;;;;6.50;5.50;;;;;;;;;;107701;297;38536;-38
2023/09/08 13:14:34;;;;;;;6.50;5.60;;;;;;;;;;107674;297;42858;-38
2023/09/08 13:17:10;;;;;;;6.50;5.90;;;;;;;;;;107706;290;41890;-38
2023/09/08 13:19:46;;;;;;;6.90;6.20;;;;;;;;;;107720;297;38744;-38
2023/09/08 13:22:22;;;;;;;7.50;6.30;;;;;;;;;;107713;289;39641;-38
2023/09/08 13:25:05;;;;;;;7.90;6.20;;;;;;;;;;107822;289;49691;-38
2023/09/08 13:27:41;;;;;;;7.20;6.50;;;;;;;;;;107701;289;43390;-38
2023/09/08 13:30:18;;;;;;;6.50;5.70;;;;;;;;;;107729;297;38929;-38
2023/09/08 13:32:55;;;;;;;7.00;5.90;;;;;;;;;;107749;293;39584;-38
2023/09/08 13:35:32;;;;;;;7.10;6.10;;;;;;;;;;107678;298;49070;-38
2023/09/08 13:38:09;;;;;;;7.00;6.30;;;;;;;;;;107719;297;41977;-38
2023/09/08 13:40:42;;;;;;;8.10;5.90;;;;;;;;;;107720;297;38608;-37
2023/09/08 13:43:20;;;;;;;7.10;6.40;;;;;;;;;;107691;297;40060;-38
2023/09/08 13:45:53;;;;;;;6.80;6.10;;;;;;;;;;107585;297;175450;-37
2023/09/08 13:48:31;;;;;;;6.80;6.10;;;;;;;;;;107696;298;42208;-38
2023/09/08 13:51:07;;;;;;;7.20;6.00;;;;;;;;;;107717;290;38883;-38
2023/09/08 13:53:43;;;;;;;8.30;6.70;;;;;;;;;;107670;297;39515;-38
2023/09/08 13:56:20;;;;;;;7.70;6.80;;;;;;;;;;107728;297;42811;-37
2023/09/08 13:58:56;;;;;;;9.30;6.70;;;;;;;;;;107573;298;175437;-38
2023/09/08 14:01:31;;;;;;;7.00;6.30;;;;;;;;;;107691;290;38900;-38
2023/09/08 14:04:08;;;;;;;7.00;6.20;;;;;;;;;;107638;297;40083;-38
2023/09/08 14:06:47;;;;;;;7.40;6.30;;;;;;;;;;107723;298;42999;-37
2023/09/08 14:09:30;;;;;;;7.50;6.20;;;;;;;;;;107043;297;892108;-38
2023/09/08 14:12:12;;;;;;;7.60;6.70;;;;;;;;;;107748;290;38751;-38
2023/09/08 14:14:51;;;;;;;7.10;6.40;;;;;;;;;;107676;297;40840;-37
2023/09/08 14:17:27;;;;;;;7.50;6.80;;;;;;;;;;107687;297;42782;-39
2023/09/08 14:20:02;;;;;;;7.10;6.40;;;;;;;;;;107683;290;42384;-39
2023/09/08 14:22:38;;;;;;;7.10;6.40;;;;;;;;;;107656;290;38786;-38
2023/09/08 14:25:16;;;;;;;6.60;6.00;;;;;;;;;;107648;294;40092;-39
2023/09/08 14:27:54;;;;;;;7.00;6.30;;;;;;;;;;107706;293;42885;-40
2023/09/08 14:30:29;;;;;;;6.70;6.00;;;;;;;;;;107034;297;891841;-40
2023/09/08 14:33:03;;;;;;;8.50;6.30;;;;;;;;;;107727;289;38851;-37
2023/09/08 14:35:41;;;;;;;6.50;5.80;;;;;;;;;;107696;296;39802;-38
2023/09/08 14:38:19;;;;;;;6.70;6.00;;;;;;;;;;107690;295;42855;-38
2023/09/08 14:41:02;;;;;;;6.70;5.90;;;;;;;;;;107689;290;44374;-37
2023/09/08 14:43:36;;;;;;;6.90;6.20;;;;;;;;;;107694;290;38480;-38
2023/09/08 14:46:12;;;;;;;6.50;5.90;;;;;;;;;;107684;290;39975;-40
2023/09/08 14:48:48;;;;;;;7.60;6.50;;;;;;;;;;107699;290;42718;-39
2023/09/08 14:51:27;;;;;;;6.80;6.20;;;;;;;;;;107700;289;42070;-37
2023/09/08 14:54:00;;;;;;;6.30;5.60;;;;;;;;;;107696;290;38621;-38
2023/09/08 14:56:35;;;;;;;7.10;6.20;;;;;;;;;;107682;297;40788;-38
2023/09/08 14:59:11;;;;;;;6.50;5.90;;;;;;;;;;107711;289;43108;-37
2023/09/08 15:01:50;;;;;;;8.00;6.40;;;;;;;;;;107707;297;43357;-39
2023/09/08 15:04:30;;;;;;;7.00;6.30;;;;;;;;;;107686;290;39820;-38
2023/09/08 15:07:08;;;;;;;6.80;5.90;;;;;;;;;;107667;297;39630;-39
2023/09/08 15:09:45;;;;;;;6.90;6.00;;;;;;;;;;107708;293;43195;-39
2023/09/08 15:12:21;;;;;;;7.70;5.90;;;;;;;;;;107718;297;43559;-37
2023/09/08 15:14:54;;;;;;;6.70;5.80;;;;;;;;;;107671;297;38505;-38
2023/09/08 15:17:34;;;;;;;7.70;6.20;;;;;;;;;;107698;293;39498;-39
2023/09/08 15:20:14;;;;;;;7.00;6.10;;;;;;;;;;107694;297;42824;-38
2023/09/08 15:22:56;;;;;;;7.70;6.10;;;;;;;;;;107557;298;175423;-37
2023/09/08 15:25:30;;;;;;;7.00;6.30;;;;;;;;;;107588;297;40843;-38
2023/09/08 15:28:06;;;;;;;6.70;5.80;;;;;;;;;;107617;297;39772;-38
2023/09/08 15:30:41;;;;;;;7.30;5.70;;;;;;;;;;107632;297;44073;-37
2023/09/08 15:33:16;;;;;;;6.30;5.70;;;;;;;;;;107557;297;42014;-37